This is the latest recevied weather packets stored in our database for station/object KF0RZX-13. If no packets are shown the sender has not sent any weather packets the latest 10 day(s).
| Time | Temp. | Humidity | Pressure | Rain* | Wind** | Luminosity | Snow |
|---|---|---|---|---|---|---|---|
| 1787655881 | 17.22° C | 77% | 1024.4 hPa | 0 mm | - | - | - |
| 1787654075 | 17.78° C | 73% | 1024.4 hPa | 0 mm | - | - | - |
| 1787652266 | 18.89° C | 68% | 1023.7 hPa | 0 mm | - | - | - |
| 1787650461 | 17.78° C | 77% | 1023.7 hPa | 0 mm | - | - | - |
| 1787648656 | 18.89° C | 73% | 1023.4 hPa | 0 mm | - | - | - |
| 1787646851 | 18.89° C | 73% | 1023.7 hPa | 0 mm | - | - | - |
| 1787645046 | 20° C | 64% | 1023.4 hPa | 0 mm | - | - | - |
| 1787643241 | 20° C | 64% | 1023.4 hPa | 0 mm | - | - | - |
| 1787641438 | 21.11° C | 56% | 1023.7 hPa | 0 mm | - | - | - |
| 1787639631 | 22.22° C | 57% | 1024.4 hPa | 0 mm | - | - | - |
| 1787637826 | 21.11° C | 64% | 1024 hPa | 0.76 mm | - | - | - |
| 1787636021 | 23.89° C | 44% | 1023.7 hPa | 0 mm | - | - | - |
| 1787634201 | 23.89° C | 41% | 1023.7 hPa | 0 mm | - | - | - |
| 1787632396 | 25° C | 39% | 1023.4 hPa | 0 mm | - | - | - |
| 1787630591 | 26.11° C | 37% | 1023.4 hPa | 0 mm | - | - | - |
| 1787628786 | 25° C | 36% | 1023 hPa | 0 mm | - | - | - |
| 1787626981 | 25° C | 36% | 1022.7 hPa | 0 mm | - | - | - |
| 1787625177 | 25° C | 36% | 1021.7 hPa | 0 mm | - | - | - |
| 1787623371 | 25° C | 36% | 1021.3 hPa | 0 mm | - | - | - |
| 1787621566 | 30° C | 25% | 1021 hPa | 0 mm | - | - | - |
| 1787619761 | 30° C | 24% | 1020.7 hPa | 0 mm | - | - | - |
| 1787617958 | 32.78° C | 20% | 1020.7 hPa | 0 mm | - | - | - |
| 1787616143 | 32.78° C | 20% | 1020.7 hPa | 0 mm | - | - | - |
| 1787614336 | 33.89° C | 19% | 1020.7 hPa | 0 mm | - | - | - |
| 1787612532 | 33.89° C | 19% | 1021 hPa | 0 mm | - | - | - |
* Rain latest hour (hover to see other rain measurements)
** Current wind speed in m/s (hover to see current wind gust speed)